sensor_id;sensor_type;location;lat;lon;timestamp;temperature;humidity
21171;DHT22;10743;52.160;20.910;2024-01-15T00:00:29;19.60;35.00
21171;DHT22;10743;52.160;20.910;2024-01-15T00:02:57;19.60;35.00
21171;DHT22;10743;52.160;20.910;2024-01-15T00:05:24;19.80;34.90
21171;DHT22;10743;52.160;20.910;2024-01-15T00:07:51;19.80;34.70
21171;DHT22;10743;52.160;20.910;2024-01-15T00:10:18;19.80;34.80
21171;DHT22;10743;52.160;20.910;2024-01-15T00:12:45;19.80;34.70
21171;DHT22;10743;52.160;20.910;2024-01-15T00:15:12;19.80;34.70
21171;DHT22;10743;52.160;20.910;2024-01-15T00:17:39;19.80;34.80
21171;DHT22;10743;52.160;20.910;2024-01-15T00:20:07;19.80;34.80
21171;DHT22;10743;52.160;20.910;2024-01-15T00:22:34;19.70;34.60
21171;DHT22;10743;52.160;20.910;2024-01-15T00:25:04;19.70;34.60
21171;DHT22;10743;52.160;20.910;2024-01-15T00:27:31;19.70;34.70
21171;DHT22;10743;52.160;20.910;2024-01-15T00:29:58;19.70;34.70
21171;DHT22;10743;52.160;20.910;2024-01-15T00:32:26;19.80;34.50
21171;DHT22;10743;52.160;20.910;2024-01-15T00:34:53;19.70;34.40
21171;DHT22;10743;52.160;20.910;2024-01-15T00:37:20;19.80;34.40
21171;DHT22;10743;52.160;20.910;2024-01-15T00:39:47;19.70;34.70
21171;DHT22;10743;52.160;20.910;2024-01-15T00:42:14;19.60;34.80
21171;DHT22;10743;52.160;20.910;2024-01-15T00:44:42;19.50;34.90
21171;DHT22;10743;52.160;20.910;2024-01-15T00:47:09;19.60;35.10
21171;DHT22;10743;52.160;20.910;2024-01-15T00:49:36;19.60;35.00
21171;DHT22;10743;52.160;20.910;2024-01-15T00:52:03;19.60;35.10
21171;DHT22;10743;52.160;20.910;2024-01-15T00:54:30;19.50;35.20
21171;DHT22;10743;52.160;20.910;2024-01-15T00:56:57;19.50;35.20
21171;DHT22;10743;52.160;20.910;2024-01-15T00:59:24;19.50;35.20
21171;DHT22;10743;52.160;20.910;2024-01-15T01:01:53;19.50;35.40
21171;DHT22;10743;52.160;20.910;2024-01-15T01:04:20;19.60;35.30
21171;DHT22;10743;52.160;20.910;2024-01-15T01:06:47;19.60;35.20
21171;DHT22;10743;52.160;20.910;2024-01-15T01:09:14;19.60;35.20
21171;DHT22;10743;52.160;20.910;2024-01-15T01:11:41;19.60;35.30
21171;DHT22;10743;52.160;20.910;2024-01-15T01:14:08;19.60;35.40
21171;DHT22;10743;52.160;20.910;2024-01-15T01:16:35;19.50;35.50
21171;DHT22;10743;52.160;20.910;2024-01-15T01:19:06;19.60;35.40
21171;DHT22;10743;52.160;20.910;2024-01-15T01:21:34;19.60;35.40
21171;DHT22;10743;52.160;20.910;2024-01-15T01:24:02;19.50;35.60
21171;DHT22;10743;52.160;20.910;2024-01-15T01:26:29;19.30;35.80
21171;DHT22;10743;52.160;20.910;2024-01-15T01:28:57;19.40;35.90
21171;DHT22;10743;52.160;20.910;2024-01-15T01:31:24;19.40;35.70
21171;DHT22;10743;52.160;20.910;2024-01-15T01:33:51;19.40;35.60
21171;DHT22;10743;52.160;20.910;2024-01-15T01:36:18;19.50;35.90
21171;DHT22;10743;52.160;20.910;2024-01-15T01:38:45;19.40;35.80
21171;DHT22;10743;52.160;20.910;2024-01-15T01:41:12;19.40;35.70
21171;DHT22;10743;52.160;20.910;2024-01-15T01:43:39;19.30;35.80
21171;DHT22;10743;52.160;20.910;2024-01-15T01:46:06;19.40;35.70
21171;DHT22;10743;52.160;20.910;2024-01-15T01:48:34;19.50;35.50
21171;DHT22;10743;52.160;20.910;2024-01-15T01:51:03;19.40;35.40
21171;DHT22;10743;52.160;20.910;2024-01-15T01:53:32;19.50;35.20
21171;DHT22;10743;52.160;20.910;2024-01-15T01:56:02;19.50;35.30
21171;DHT22;10743;52.160;20.910;2024-01-15T01:58:30;19.50;35.30
21171;DHT22;10743;52.160;20.910;2024-01-15T02:00:59;19.50;35.30
21171;DHT22;10743;52.160;20.910;2024-01-15T02:03:30;19.40;35.30
21171;DHT22;10743;52.160;20.910;2024-01-15T02:05:59;19.50;35.30
21171;DHT22;10743;52.160;20.910;2024-01-15T02:08:27;19.50;35.20
21171;DHT22;10743;52.160;20.910;2024-01-15T02:10:54;19.50;35.20
21171;DHT22;10743;52.160;20.910;2024-01-15T02:13:21;19.50;35.20
21171;DHT22;10743;52.160;20.910;2024-01-15T02:15:48;19.50;35.10
21171;DHT22;10743;52.160;20.910;2024-01-15T02:18:15;19.50;35.00
21171;DHT22;10743;52.160;20.910;2024-01-15T02:20:42;19.60;35.00
21171;DHT22;10743;52.160;20.910;2024-01-15T02:23:12;19.60;34.80
21171;DHT22;10743;52.160;20.910;2024-01-15T02:25:42;19.50;34.80
21171;DHT22;10743;52.160;20.910;2024-01-15T02:28:13;19.50;34.70
21171;DHT22;10743;52.160;20.910;2024-01-15T02:30:42;19.60;34.70
21171;DHT22;10743;52.160;20.910;2024-01-15T02:33:11;19.50;34.90
21171;DHT22;10743;52.160;20.910;2024-01-15T02:35:39;19.40;35.10
21171;DHT22;10743;52.160;20.910;2024-01-15T02:38:06;19.40;34.80
21171;DHT22;10743;52.160;20.910;2024-01-15T02:40:34;19.50;35.10
21171;DHT22;10743;52.160;20.910;2024-01-15T02:43:01;19.50;34.80
21171;DHT22;10743;52.160;20.910;2024-01-15T02:45:28;19.50;34.70
21171;DHT22;10743;52.160;20.910;2024-01-15T02:47:56;19.50;34.90
21171;DHT22;10743;52.160;20.910;2024-01-15T02:50:23;19.50;34.80
21171;DHT22;10743;52.160;20.910;2024-01-15T02:52:50;19.50;34.90
21171;DHT22;10743;52.160;20.910;2024-01-15T02:55:17;19.50;34.80
21171;DHT22;10743;52.160;20.910;2024-01-15T02:57:44;19.60;34.70
21171;DHT22;10743;52.160;20.910;2024-01-15T03:00:12;19.60;34.70
21171;DHT22;10743;52.160;20.910;2024-01-15T03:02:40;19.50;34.60
21171;DHT22;10743;52.160;20.910;2024-01-15T03:05:14;19.40;34.70
21171;DHT22;10743;52.160;20.910;2024-01-15T03:07:41;19.50;34.60
21171;DHT22;10743;52.160;20.910;2024-01-15T03:10:08;19.50;34.60
21171;DHT22;10743;52.160;20.910;2024-01-15T03:12:36;19.50;34.60
21171;DHT22;10743;52.160;20.910;2024-01-15T03:15:03;19.50;34.90
21171;DHT22;10743;52.160;20.910;2024-01-15T03:17:30;19.50;35.00
21171;DHT22;10743;52.160;20.910;2024-01-15T03:19:58;19.60;35.00
21171;DHT22;10743;52.160;20.910;2024-01-15T03:22:25;19.50;35.00
21171;DHT22;10743;52.160;20.910;2024-01-15T03:24:53;19.60;34.90
21171;DHT22;10743;52.160;20.910;2024-01-15T03:27:20;19.60;34.70
21171;DHT22;10743;52.160;20.910;2024-01-15T03:29:47;19.60;34.80
21171;DHT22;10743;52.160;20.910;2024-01-15T03:32:14;19.60;34.60
21171;DHT22;10743;52.160;20.910;2024-01-15T03:34:43;19.60;34.80
21171;DHT22;10743;52.160;20.910;2024-01-15T03:37:10;19.60;34.80
21171;DHT22;10743;52.160;20.910;2024-01-15T03:39:37;19.40;34.90
21171;DHT22;10743;52.160;20.910;2024-01-15T03:42:05;19.40;34.80
21171;DHT22;10743;52.160;20.910;2024-01-15T03:44:33;19.70;34.80
21171;DHT22;10743;52.160;20.910;2024-01-15T03:47:00;19.40;34.90
21171;DHT22;10743;52.160;20.910;2024-01-15T03:49:27;19.40;35.00
21171;DHT22;10743;52.160;20.910;2024-01-15T03:51:54;19.30;35.70
21171;DHT22;10743;52.160;20.910;2024-01-15T03:54:21;19.40;34.80
21171;DHT22;10743;52.160;20.910;2024-01-15T03:56:48;19.50;34.90
21171;DHT22;10743;52.160;20.910;2024-01-15T03:59:15;19.40;34.90
21171;DHT22;10743;52.160;20.910;2024-01-15T04:01:48;19.50;34.90
21171;DHT22;10743;52.160;20.910;2024-01-15T04:04:18;19.40;34.70
21171;DHT22;10743;52.160;20.910;2024-01-15T04:06:45;19.50;34.70
21171;DHT22;10743;52.160;20.910;2024-01-15T04:09:13;19.50;34.50
21171;DHT22;10743;52.160;20.910;2024-01-15T04:11:41;19.50;34.60
21171;DHT22;10743;52.160;20.910;2024-01-15T04:14:08;19.50;34.50
21171;DHT22;10743;52.160;20.910;2024-01-15T04:16:35;19.40;34.60
21171;DHT22;10743;52.160;20.910;2024-01-15T04:19:02;19.50;34.60
21171;DHT22;10743;52.160;20.910;2024-01-15T04:21:29;19.50;34.50
21171;DHT22;10743;52.160;20.910;2024-01-15T04:23:56;19.40;34.40
21171;DHT22;10743;52.160;20.910;2024-01-15T04:26:23;19.40;34.50
21171;DHT22;10743;52.160;20.910;2024-01-15T04:28:50;19.40;34.50
21171;DHT22;10743;52.160;20.910;2024-01-15T04:31:24;19.40;34.50
21171;DHT22;10743;52.160;20.910;2024-01-15T04:33:54;19.40;34.40
21171;DHT22;10743;52.160;20.910;2024-01-15T04:36:21;19.50;34.10
21171;DHT22;10743;52.160;20.910;2024-01-15T04:38:48;19.60;34.20
21171;DHT22;10743;52.160;20.910;2024-01-15T04:41:16;19.50;34.20
21171;DHT22;10743;52.160;20.910;2024-01-15T04:43:43;19.40;34.20
21171;DHT22;10743;52.160;20.910;2024-01-15T04:46:10;19.40;34.40
21171;DHT22;10743;52.160;20.910;2024-01-15T04:48:37;19.50;34.30
21171;DHT22;10743;52.160;20.910;2024-01-15T04:51:05;19.50;34.00
21171;DHT22;10743;52.160;20.910;2024-01-15T04:53:34;19.60;33.90
21171;DHT22;10743;52.160;20.910;2024-01-15T04:56:02;19.60;33.80
21171;DHT22;10743;52.160;20.910;2024-01-15T04:58:29;19.50;33.90
21171;DHT22;10743;52.160;20.910;2024-01-15T05:00:56;19.50;34.00
21171;DHT22;10743;52.160;20.910;2024-01-15T05:03:23;19.60;33.90
21171;DHT22;10743;52.160;20.910;2024-01-15T05:05:51;19.60;33.80
21171;DHT22;10743;52.160;20.910;2024-01-15T05:08:18;19.60;33.80
21171;DHT22;10743;52.160;20.910;2024-01-15T05:10:45;19.70;33.70
21171;DHT22;10743;52.160;20.910;2024-01-15T05:13:12;19.60;33.70
21171;DHT22;10743;52.160;20.910;2024-01-15T05:15:39;19.60;33.90
21171;DHT22;10743;52.160;20.910;2024-01-15T05:18:06;19.60;33.90
21171;DHT22;10743;52.160;20.910;2024-01-15T05:20:34;19.50;33.90
21171;DHT22;10743;52.160;20.910;2024-01-15T05:23:01;19.50;34.10
21171;DHT22;10743;52.160;20.910;2024-01-15T05:25:28;19.50;34.00
21171;DHT22;10743;52.160;20.910;2024-01-15T05:27:55;19.50;33.80
21171;DHT22;10743;52.160;20.910;2024-01-15T05:30:23;19.50;33.90
21171;DHT22;10743;52.160;20.910;2024-01-15T05:32:50;19.70;33.60
21171;DHT22;10743;52.160;20.910;2024-01-15T05:35:17;19.60;33.80
21171;DHT22;10743;52.160;20.910;2024-01-15T05:37:45;19.50;33.80
21171;DHT22;10743;52.160;20.910;2024-01-15T05:40:12;19.50;33.90
21171;DHT22;10743;52.160;20.910;2024-01-15T05:42:40;19.50;33.80
21171;DHT22;10743;52.160;20.910;2024-01-15T05:45:08;19.50;33.80
21171;DHT22;10743;52.160;20.910;2024-01-15T05:47:35;19.40;33.90
21171;DHT22;10743;52.160;20.910;2024-01-15T05:50:03;19.50;33.80
21171;DHT22;10743;52.160;20.910;2024-01-15T05:52:30;19.50;33.70
21171;DHT22;10743;52.160;20.910;2024-01-15T05:54:57;19.50;33.60
21171;DHT22;10743;52.160;20.910;2024-01-15T05:57:24;19.40;33.80
21171;DHT22;10743;52.160;20.910;2024-01-15T05:59:52;19.50;33.90
21171;DHT22;10743;52.160;20.910;2024-01-15T06:02:19;19.40;33.90
21171;DHT22;10743;52.160;20.910;2024-01-15T06:04:46;19.50;33.90
21171;DHT22;10743;52.160;20.910;2024-01-15T06:07:13;19.50;34.00
21171;DHT22;10743;52.160;20.910;2024-01-15T06:09:40;19.50;34.10
21171;DHT22;10743;52.160;20.910;2024-01-15T06:12:08;19.50;33.80
21171;DHT22;10743;52.160;20.910;2024-01-15T06:14:35;19.50;33.80
21171;DHT22;10743;52.160;20.910;2024-01-15T06:17:02;19.50;33.90
21171;DHT22;10743;52.160;20.910;2024-01-15T06:19:29;19.40;33.90
21171;DHT22;10743;52.160;20.910;2024-01-15T06:21:56;19.50;33.80
21171;DHT22;10743;52.160;20.910;2024-01-15T06:24:24;19.60;33.40
21171;DHT22;10743;52.160;20.910;2024-01-15T06:26:51;19.60;33.50
21171;DHT22;10743;52.160;20.910;2024-01-15T06:29:18;19.50;33.60
21171;DHT22;10743;52.160;20.910;2024-01-15T06:31:45;19.60;33.60
21171;DHT22;10743;52.160;20.910;2024-01-15T06:34:12;19.50;33.50
21171;DHT22;10743;52.160;20.910;2024-01-15T06:36:40;19.50;33.60
21171;DHT22;10743;52.160;20.910;2024-01-15T06:39:07;19.40;33.70
21171;DHT22;10743;52.160;20.910;2024-01-15T06:41:34;19.50;33.60
21171;DHT22;10743;52.160;20.910;2024-01-15T06:44:01;19.50;33.50
21171;DHT22;10743;52.160;20.910;2024-01-15T06:46:28;19.70;33.30
21171;DHT22;10743;52.160;20.910;2024-01-15T06:48:55;19.60;33.20
21171;DHT22;10743;52.160;20.910;2024-01-15T06:51:22;19.60;33.10
21171;DHT22;10743;52.160;20.910;2024-01-15T06:53:49;19.70;32.90
21171;DHT22;10743;52.160;20.910;2024-01-15T06:56:16;19.70;32.80
21171;DHT22;10743;52.160;20.910;2024-01-15T06:58:43;19.60;32.80
21171;DHT22;10743;52.160;20.910;2024-01-15T07:01:10;19.50;33.10
21171;DHT22;10743;52.160;20.910;2024-01-15T07:03:38;19.50;33.20
21171;DHT22;10743;52.160;20.910;2024-01-15T07:06:05;19.50;33.90
21171;DHT22;10743;52.160;20.910;2024-01-15T07:08:32;19.40;33.20
21171;DHT22;10743;52.160;20.910;2024-01-15T07:10:59;19.50;33.30
21171;DHT22;10743;52.160;20.910;2024-01-15T07:13:30;19.40;33.50
21171;DHT22;10743;52.160;20.910;2024-01-15T07:15:57;19.40;33.40
21171;DHT22;10743;52.160;20.910;2024-01-15T07:18:25;19.40;33.40
21171;DHT22;10743;52.160;20.910;2024-01-15T07:20:52;19.50;33.60
21171;DHT22;10743;52.160;20.910;2024-01-15T07:23:19;19.50;33.80
21171;DHT22;10743;52.160;20.910;2024-01-15T07:25:46;19.60;33.90
21171;DHT22;10743;52.160;20.910;2024-01-15T07:28:13;19.40;33.80
21171;DHT22;10743;52.160;20.910;2024-01-15T07:30:40;19.50;34.10
21171;DHT22;10743;52.160;20.910;2024-01-15T07:33:08;19.50;34.00
21171;DHT22;10743;52.160;20.910;2024-01-15T07:35:35;19.50;34.20
21171;DHT22;10743;52.160;20.910;2024-01-15T07:38:02;19.60;34.20
21171;DHT22;10743;52.160;20.910;2024-01-15T07:40:29;19.40;34.20
21171;DHT22;10743;52.160;20.910;2024-01-15T07:42:56;19.40;34.50
21171;DHT22;10743;52.160;20.910;2024-01-15T07:45:23;19.50;34.30
21171;DHT22;10743;52.160;20.910;2024-01-15T07:47:50;19.40;34.40
21171;DHT22;10743;52.160;20.910;2024-01-15T07:50:17;19.20;34.50
21171;DHT22;10743;52.160;20.910;2024-01-15T07:52:45;19.30;34.60
21171;DHT22;10743;52.160;20.910;2024-01-15T07:55:12;19.30;34.40
21171;DHT22;10743;52.160;20.910;2024-01-15T07:57:40;19.40;34.30
21171;DHT22;10743;52.160;20.910;2024-01-15T08:00:07;19.50;34.10
21171;DHT22;10743;52.160;20.910;2024-01-15T08:02:36;19.50;34.10
21171;DHT22;10743;52.160;20.910;2024-01-15T08:05:04;19.50;34.10
21171;DHT22;10743;52.160;20.910;2024-01-15T08:07:31;19.50;34.10
21171;DHT22;10743;52.160;20.910;2024-01-15T08:09:58;19.50;35.00
21171;DHT22;10743;52.160;20.910;2024-01-15T08:12:25;19.40;34.40
21171;DHT22;10743;52.160;20.910;2024-01-15T08:14:52;19.30;34.70
21171;DHT22;10743;52.160;20.910;2024-01-15T08:17:21;19.30;34.70
21171;DHT22;10743;52.160;20.910;2024-01-15T08:19:48;19.30;34.70
21171;DHT22;10743;52.160;20.910;2024-01-15T08:22:15;19.30;34.70
21171;DHT22;10743;52.160;20.910;2024-01-15T08:24:42;19.30;34.60
21171;DHT22;10743;52.160;20.910;2024-01-15T08:27:11;19.40;34.40
21171;DHT22;10743;52.160;20.910;2024-01-15T08:29:38;19.40;34.40
21171;DHT22;10743;52.160;20.910;2024-01-15T08:32:05;19.30;34.50
21171;DHT22;10743;52.160;20.910;2024-01-15T08:34:32;19.40;34.40
21171;DHT22;10743;52.160;20.910;2024-01-15T08:36:59;19.40;34.40
21171;DHT22;10743;52.160;20.910;2024-01-15T08:39:26;19.50;34.30
21171;DHT22;10743;52.160;20.910;2024-01-15T08:41:53;19.50;34.30
21171;DHT22;10743;52.160;20.910;2024-01-15T08:44:20;19.40;34.40
21171;DHT22;10743;52.160;20.910;2024-01-15T08:46:47;19.40;34.60
21171;DHT22;10743;52.160;20.910;2024-01-15T08:49:14;19.30;34.60
21171;DHT22;10743;52.160;20.910;2024-01-15T08:51:41;19.40;34.80
21171;DHT22;10743;52.160;20.910;2024-01-15T08:54:09;19.40;34.80
21171;DHT22;10743;52.160;20.910;2024-01-15T08:56:36;19.40;34.90
21171;DHT22;10743;52.160;20.910;2024-01-15T08:59:03;19.30;34.80
21171;DHT22;10743;52.160;20.910;2024-01-15T09:01:30;19.40;34.80
21171;DHT22;10743;52.160;20.910;2024-01-15T09:03:57;19.40;34.60
21171;DHT22;10743;52.160;20.910;2024-01-15T09:06:25;19.40;34.60
21171;DHT22;10743;52.160;20.910;2024-01-15T09:08:52;19.40;34.30
21171;DHT22;10743;52.160;20.910;2024-01-15T09:11:19;19.40;34.40
21171;DHT22;10743;52.160;20.910;2024-01-15T09:13:46;19.50;33.90
21171;DHT22;10743;52.160;20.910;2024-01-15T09:16:13;19.50;33.90
21171;DHT22;10743;52.160;20.910;2024-01-15T09:18:40;19.50;33.60
21171;DHT22;10743;52.160;20.910;2024-01-15T09:21:07;19.50;33.40
21171;DHT22;10743;52.160;20.910;2024-01-15T09:23:34;19.60;33.60
21171;DHT22;10743;52.160;20.910;2024-01-15T09:26:02;19.50;33.40
21171;DHT22;10743;52.160;20.910;2024-01-15T09:28:29;19.60;33.10
21171;DHT22;10743;52.160;20.910;2024-01-15T09:30:56;19.60;32.90
21171;DHT22;10743;52.160;20.910;2024-01-15T09:33:23;19.70;32.60
21171;DHT22;10743;52.160;20.910;2024-01-15T09:35:50;19.70;32.60
21171;DHT22;10743;52.160;20.910;2024-01-15T09:38:17;19.70;32.80
21171;DHT22;10743;52.160;20.910;2024-01-15T09:40:46;19.70;32.60
21171;DHT22;10743;52.160;20.910;2024-01-15T09:43:14;19.70;32.60
21171;DHT22;10743;52.160;20.910;2024-01-15T09:45:43;19.80;32.20
21171;DHT22;10743;52.160;20.910;2024-01-15T09:48:10;19.80;31.90
21171;DHT22;10743;52.160;20.910;2024-01-15T09:50:37;19.90;32.10
21171;DHT22;10743;52.160;20.910;2024-01-15T09:53:05;19.90;31.10
21171;DHT22;10743;52.160;20.910;2024-01-15T09:55:33;20.00;31.20
21171;DHT22;10743;52.160;20.910;2024-01-15T09:58:00;20.00;31.40
21171;DHT22;10743;52.160;20.910;2024-01-15T10:00:30;20.00;31.30
21171;DHT22;10743;52.160;20.910;2024-01-15T10:03:00;19.90;31.00
21171;DHT22;10743;52.160;20.910;2024-01-15T10:05:27;20.00;31.00
21171;DHT22;10743;52.160;20.910;2024-01-15T10:07:56;20.00;31.00
21171;DHT22;10743;52.160;20.910;2024-01-15T10:10:24;20.00;30.90
21171;DHT22;10743;52.160;20.910;2024-01-15T10:12:51;20.00;30.70
21171;DHT22;10743;52.160;20.910;2024-01-15T10:15:22;20.00;30.70
21171;DHT22;10743;52.160;20.910;2024-01-15T10:17:50;20.00;30.90
21171;DHT22;10743;52.160;20.910;2024-01-15T10:20:17;20.00;30.70
21171;DHT22;10743;52.160;20.910;2024-01-15T10:22:45;20.00;30.80
21171;DHT22;10743;52.160;20.910;2024-01-15T10:25:15;20.00;30.60
21171;DHT22;10743;52.160;20.910;2024-01-15T10:27:43;20.10;30.50
21171;DHT22;10743;52.160;20.910;2024-01-15T10:30:11;20.00;31.20
21171;DHT22;10743;52.160;20.910;2024-01-15T10:32:41;20.10;30.60
21171;DHT22;10743;52.160;20.910;2024-01-15T10:35:08;20.00;30.70
21171;DHT22;10743;52.160;20.910;2024-01-15T10:37:35;20.00;30.70
21171;DHT22;10743;52.160;20.910;2024-01-15T10:40:03;20.10;30.80
21171;DHT22;10743;52.160;20.910;2024-01-15T10:42:32;20.10;30.80
21171;DHT22;10743;52.160;20.910;2024-01-15T10:44:59;20.10;31.10
21171;DHT22;10743;52.160;20.910;2024-01-15T10:47:26;20.10;31.30
21171;DHT22;10743;52.160;20.910;2024-01-15T10:49:53;20.10;31.40
21171;DHT22;10743;52.160;20.910;2024-01-15T10:52:21;20.40;31.40
21171;DHT22;10743;52.160;20.910;2024-01-15T10:54:50;20.20;31.20
21171;DHT22;10743;52.160;20.910;2024-01-15T10:57:18;20.20;31.10
21171;DHT22;10743;52.160;20.910;2024-01-15T10:59:47;20.20;30.90
21171;DHT22;10743;52.160;20.910;2024-01-15T11:02:15;20.30;31.00
21171;DHT22;10743;52.160;20.910;2024-01-15T11:04:42;20.20;31.20
21171;DHT22;10743;52.160;20.910;2024-01-15T11:07:10;20.40;31.20
21171;DHT22;10743;52.160;20.910;2024-01-15T11:09:38;20.30;31.10
21171;DHT22;10743;52.160;20.910;2024-01-15T11:12:16;20.30;31.00
21171;DHT22;10743;52.160;20.910;2024-01-15T11:14:48;20.30;31.10
21171;DHT22;10743;52.160;20.910;2024-01-15T11:17:17;20.20;31.30
21171;DHT22;10743;52.160;20.910;2024-01-15T11:19:50;20.20;31.10
21171;DHT22;10743;52.160;20.910;2024-01-15T11:25:01;20.30;30.70
21171;DHT22;10743;52.160;20.910;2024-01-15T11:27:52;20.30;30.70
21171;DHT22;10743;52.160;20.910;2024-01-15T11:30:25;20.30;30.60
21171;DHT22;10743;52.160;20.910;2024-01-15T11:32:53;20.30;30.50
21171;DHT22;10743;52.160;20.910;2024-01-15T11:35:20;20.40;30.50
21171;DHT22;10743;52.160;20.910;2024-01-15T11:40:22;20.30;30.50
21171;DHT22;10743;52.160;20.910;2024-01-15T11:43:05;20.30;30.70
21171;DHT22;10743;52.160;20.910;2024-01-15T11:45:37;20.30;31.30
21171;DHT22;10743;52.160;20.910;2024-01-15T11:48:12;20.20;31.20
21171;DHT22;10743;52.160;20.910;2024-01-15T11:53:17;20.10;31.60
21171;DHT22;10743;52.160;20.910;2024-01-15T11:55:51;20.00;31.60
21171;DHT22;10743;52.160;20.910;2024-01-15T11:58:19;20.10;31.80
21171;DHT22;10743;52.160;20.910;2024-01-15T12:00:49;20.00;31.70
21171;DHT22;10743;52.160;20.910;2024-01-15T12:03:23;20.10;31.80
21171;DHT22;10743;52.160;20.910;2024-01-15T12:05:54;20.00;31.90
21171;DHT22;10743;52.160;20.910;2024-01-15T12:08:23;20.00;32.00
21171;DHT22;10743;52.160;20.910;2024-01-15T12:10:51;20.00;32.10
21171;DHT22;10743;52.160;20.910;2024-01-15T12:13:18;19.90;32.80
21171;DHT22;10743;52.160;20.910;2024-01-15T12:15:47;20.00;32.20
21171;DHT22;10743;52.160;20.910;2024-01-15T12:18:17;20.00;32.30
21171;DHT22;10743;52.160;20.910;2024-01-15T12:20:46;20.00;32.60
21171;DHT22;10743;52.160;20.910;2024-01-15T12:23:17;20.00;32.80
21171;DHT22;10743;52.160;20.910;2024-01-15T12:25:45;19.90;32.70
21171;DHT22;10743;52.160;20.910;2024-01-15T12:28:13;19.90;32.80
21171;DHT22;10743;52.160;20.910;2024-01-15T12:30:40;19.90;32.70
21171;DHT22;10743;52.160;20.910;2024-01-15T12:33:07;19.90;32.90
21171;DHT22;10743;52.160;20.910;2024-01-15T12:35:37;19.90;33.00
21171;DHT22;10743;52.160;20.910;2024-01-15T12:38:04;19.80;33.40
21171;DHT22;10743;52.160;20.910;2024-01-15T12:40:33;19.80;33.40
21171;DHT22;10743;52.160;20.910;2024-01-15T12:43:02;19.80;33.50
21171;DHT22;10743;52.160;20.910;2024-01-15T12:45:30;19.70;33.50
21171;DHT22;10743;52.160;20.910;2024-01-15T12:47:58;19.60;33.40
21171;DHT22;10743;52.160;20.910;2024-01-15T12:50:27;19.70;33.40
21171;DHT22;10743;52.160;20.910;2024-01-15T12:52:54;19.50;33.30
21171;DHT22;10743;52.160;20.910;2024-01-15T12:55:21;19.60;33.10
21171;DHT22;10743;52.160;20.910;2024-01-15T12:57:49;19.50;33.00
21171;DHT22;10743;52.160;20.910;2024-01-15T13:00:19;19.60;33.00
21171;DHT22;10743;52.160;20.910;2024-01-15T13:02:47;19.50;33.00
21171;DHT22;10743;52.160;20.910;2024-01-15T13:05:16;19.60;33.20
21171;DHT22;10743;52.160;20.910;2024-01-15T13:07:44;19.60;33.90
21171;DHT22;10743;52.160;20.910;2024-01-15T13:10:11;19.50;34.00
21171;DHT22;10743;52.160;20.910;2024-01-15T13:12:40;19.50;34.00
21171;DHT22;10743;52.160;20.910;2024-01-15T13:15:08;19.40;34.30
21171;DHT22;10743;52.160;20.910;2024-01-15T13:17:41;19.50;34.60
21171;DHT22;10743;52.160;20.910;2024-01-15T13:20:10;19.40;34.50
21171;DHT22;10743;52.160;20.910;2024-01-15T13:22:39;19.40;34.40
21171;DHT22;10743;52.160;20.910;2024-01-15T13:25:07;19.30;34.50
21171;DHT22;10743;52.160;20.910;2024-01-15T13:27:35;19.30;34.40
21171;DHT22;10743;52.160;20.910;2024-01-15T13:30:05;19.20;34.50
21171;DHT22;10743;52.160;20.910;2024-01-15T13:32:34;19.20;34.40
21171;DHT22;10743;52.160;20.910;2024-01-15T13:35:02;19.30;34.10
21171;DHT22;10743;52.160;20.910;2024-01-15T13:37:32;19.30;34.10
21171;DHT22;10743;52.160;20.910;2024-01-15T13:39:59;19.30;34.10
21171;DHT22;10743;52.160;20.910;2024-01-15T13:42:26;19.30;34.00
21171;DHT22;10743;52.160;20.910;2024-01-15T13:44:54;19.40;33.90
21171;DHT22;10743;52.160;20.910;2024-01-15T13:47:21;19.40;34.40
21171;DHT22;10743;52.160;20.910;2024-01-15T13:49:49;19.50;33.60
21171;DHT22;10743;52.160;20.910;2024-01-15T13:52:16;19.40;33.70
21171;DHT22;10743;52.160;20.910;2024-01-15T13:54:44;19.30;33.70
21171;DHT22;10743;52.160;20.910;2024-01-15T13:57:17;19.30;33.80
21171;DHT22;10743;52.160;20.910;2024-01-15T13:59:45;19.40;33.50
21171;DHT22;10743;52.160;20.910;2024-01-15T14:02:13;19.40;33.50
21171;DHT22;10743;52.160;20.910;2024-01-15T14:04:47;19.40;33.30
21171;DHT22;10743;52.160;20.910;2024-01-15T14:07:16;19.40;33.30
21171;DHT22;10743;52.160;20.910;2024-01-15T14:09:43;19.40;33.50
21171;DHT22;10743;52.160;20.910;2024-01-15T14:12:10;19.50;33.20
21171;DHT22;10743;52.160;20.910;2024-01-15T14:14:38;19.40;33.20
21171;DHT22;10743;52.160;20.910;2024-01-15T14:17:07;19.40;33.20
21171;DHT22;10743;52.160;20.910;2024-01-15T14:19:34;19.40;33.20
21171;DHT22;10743;52.160;20.910;2024-01-15T14:22:01;19.30;33.30
21171;DHT22;10743;52.160;20.910;2024-01-15T14:24:28;19.20;33.40
21171;DHT22;10743;52.160;20.910;2024-01-15T14:26:55;19.30;33.30
21171;DHT22;10743;52.160;20.910;2024-01-15T14:29:23;19.30;33.20
21171;DHT22;10743;52.160;20.910;2024-01-15T14:31:53;19.40;33.10
21171;DHT22;10743;52.160;20.910;2024-01-15T14:34:20;19.30;33.10
21171;DHT22;10743;52.160;20.910;2024-01-15T14:36:51;19.40;33.00
21171;DHT22;10743;52.160;20.910;2024-01-15T14:39:22;19.30;33.00
21171;DHT22;10743;52.160;20.910;2024-01-15T14:41:50;19.30;33.10
21171;DHT22;10743;52.160;20.910;2024-01-15T14:44:17;19.30;33.10
21171;DHT22;10743;52.160;20.910;2024-01-15T14:46:44;19.30;33.10
21171;DHT22;10743;52.160;20.910;2024-01-15T14:49:13;19.30;33.00
21171;DHT22;10743;52.160;20.910;2024-01-15T14:51:41;19.30;33.20
21171;DHT22;10743;52.160;20.910;2024-01-15T14:54:09;19.30;33.10
21171;DHT22;10743;52.160;20.910;2024-01-15T14:56:36;19.30;33.00
21171;DHT22;10743;52.160;20.910;2024-01-15T14:59:03;19.40;33.00
21171;DHT22;10743;52.160;20.910;2024-01-15T15:01:31;19.40;32.80
21171;DHT22;10743;52.160;20.910;2024-01-15T15:03:58;19.40;32.50
21171;DHT22;10743;52.160;20.910;2024-01-15T15:06:25;19.40;32.50
21171;DHT22;10743;52.160;20.910;2024-01-15T15:08:54;19.40;32.50
21171;DHT22;10743;52.160;20.910;2024-01-15T15:11:26;19.50;32.10
21171;DHT22;10743;52.160;20.910;2024-01-15T15:13:53;19.30;32.20
21171;DHT22;10743;52.160;20.910;2024-01-15T15:16:20;19.30;32.30
21171;DHT22;10743;52.160;20.910;2024-01-15T15:18:47;19.60;31.90
21171;DHT22;10743;52.160;20.910;2024-01-15T15:21:15;19.50;31.90
21171;DHT22;10743;52.160;20.910;2024-01-15T15:23:42;19.60;32.10
21171;DHT22;10743;52.160;20.910;2024-01-15T15:26:09;19.40;32.20